KCBE/CBE METAR and TAF weather

Enter ICAO airport designator
Station Type Date Time Source
KCBE METAR 2022/01/27 23:35 UTC NOAA

KCBE 272335Z AUTO 04003KT 10SM OVC060 M01/M10 A3024 RMK AO2 T10111096


Station Type Date Time Source
KCBE Decoded METAR 2022/01/27 23:35 UTC NOAA

Cumberland, Greater Cumberland Regional Airport, MD, United States (KCBE) 39-36-55N 078-45-39W
Jan 27, 2022 - 06:35 PM EST / 2022.01.27 2335 UTC
Wind: from the NE (040 degrees) at 3 MPH (3 KT):0
Visibility: 10 mile(s):0
Sky conditions: overcast
Temperature: 30.0 F (-1.1 C)
Dew Point: 14.7 F (-9.6 C)
Relative Humidity: 52%
Pressure (altimeter): 30.24 in. Hg (1024 hPa)
ob: KCBE 272335Z AUTO 04003KT 10SM OVC060 M01/M10 A3024 RMK AO2 T10111096
cycle: 23

Station Type Date Time Source
KCBE TAF UTC NOAA

Error!

Example: see airport list